Time;durP1;ratioP1;P1;durP2;ratioP2;P2;SDS_P1;SDS_P2;PMS_P1;PMS_P2;Temp;Humidity;BMP_temperature;BMP_pressure;BME280_temperature;BME280_humidity;BME280_pressure;Samples;Min_cycle;Max_cycle;Signal;HPM_P1;HPM_P2
2022/01/27 00:01:57;;;;;;;;;;;22.40;26.60;;;;;;467337;255;1521;-64
2022/01/27 00:04:03;;;;;;;;;;;22.20;26.80;;;;;;467191;255;1395;-63
2022/01/27 00:05:55;;;;;;;;;;;22.30;26.70;;;;;;466853;251;1386;-64
2022/01/27 00:08:09;;;;;;;;;;;22.40;26.60;;;;;;467565;255;1359;-63
2022/01/27 00:10:12;;;;;;;;;;;22.40;26.60;;;;;;467018;255;1424;-63
2022/01/27 00:12:05;;;;;;;;;;;22.30;26.70;;;;;;467051;255;1316;-64
2022/01/27 00:14:06;;;;;;;;;;;22.20;26.80;;;;;;467754;255;1391;-63
2022/01/27 00:16:15;;;;;;;;;;;22.20;26.80;;;;;;467784;255;2137;-63
2022/01/27 00:18:17;;;;;;;;;;;22.20;26.80;;;;;;467551;255;1424;-63
2022/01/27 00:20:16;;;;;;;;;;;22.10;26.80;;;;;;467550;255;1432;-64
2022/01/27 00:22:17;;;;;;;;;;;22.10;26.80;;;;;;467698;255;1203;-63
2022/01/27 00:24:19;;;;;;;;;;;22.10;26.70;;;;;;467852;255;985;-63
2022/01/27 00:26:20;;;;;;;;;;;22.20;26.70;;;;;;467745;255;1319;-63
2022/01/27 00:28:21;;;;;;;;;;;22.20;26.70;;;;;;467870;255;980;-63
2022/01/27 00:30:23;;;;;;;;;;;22.10;26.80;;;;;;467720;255;1181;-63
2022/01/27 00:32:24;;;;;;;;;;;22.40;26.50;;;;;;467627;255;1133;-63
2022/01/27 00:34:25;;;;;;;;;;;22.30;26.50;;;;;;467763;255;1049;-64
2022/01/27 00:36:26;;;;;;;;;;;22.40;26.50;;;;;;467702;254;1157;-63
2022/01/27 00:38:28;;;;;;;;;;;22.30;26.60;;;;;;467794;255;1000;-63
2022/01/27 00:40:29;;;;;;;;;;;22.30;26.60;;;;;;467724;255;1054;-63
2022/01/27 00:42:31;;;;;;;;;;;22.40;26.50;;;;;;467721;255;1332;-63
2022/01/27 00:44:32;;;;;;;;;;;22.30;26.70;;;;;;467777;255;1328;-63
2022/01/27 00:46:36;;;;;;;;;;;22.30;26.70;;;;;;467714;255;1291;-63
2022/01/27 00:48:34;;;;;;;;;;;22.20;26.60;;;;;;467538;255;1821;-63
2022/01/27 00:50:37;;;;;;;;;;;22.30;26.60;;;;;;467727;255;980;-63
2022/01/27 00:52:41;;;;;;;;;;;22.20;26.60;;;;;;467585;255;1460;-63
2022/01/27 00:54:38;;;;;;;;;;;22.20;26.70;;;;;;467498;254;2208;-63
2022/01/27 00:56:47;;;;;;;;;;;22.20;26.70;;;;;;467710;251;1404;-63
2022/01/27 00:58:50;;;;;;;;;;;22.30;26.60;;;;;;467352;255;1427;-63
2022/01/27 01:00:53;;;;;;;;;;;22.40;26.50;;;;;;467345;255;1392;-63
2022/01/27 01:02:51;;;;;;;;;;;22.40;26.50;;;;;;467217;255;1469;-63
2022/01/27 01:04:59;;;;;;;;;;;22.30;26.50;;;;;;467396;255;1388;-63
2022/01/27 01:06:50;;;;;;;;;;;22.40;26.40;;;;;;466913;255;1351;-63
2022/01/27 01:11:44;;;;;;;;;;;22.30;26.40;;;;;;467730;255;1022;-63
2022/01/27 01:15:56;;;;;;;;;;;22.20;26.50;;;;;;466241;255;2201;-63
2022/01/27 01:18:04;;;;;;;;;;;22.30;26.50;;;;;;467752;255;1172;-63
2022/01/27 01:29:40;;;;;;;;;;;22.20;26.60;;;;;;467782;255;1128;-64
2022/01/27 01:31:42;;;;;;;;;;;22.50;26.20;;;;;;466870;255;1606;-63
2022/01/27 01:33:34;;;;;;;;;;;22.40;26.40;;;;;;466972;255;1406;-63
2022/01/27 01:35:47;;;;;;;;;;;22.40;26.30;;;;;;467502;255;2216;-63
2022/01/27 01:37:40;;;;;;;;;;;22.40;26.40;;;;;;467004;255;1541;-63
2022/01/27 01:39:39;;;;;;;;;;;22.40;26.30;;;;;;467627;255;1395;-63
2022/01/27 01:41:41;;;;;;;;;;;22.50;26.30;;;;;;467718;255;1246;-64
2022/01/27 01:43:42;;;;;;;;;;;22.40;26.30;;;;;;467828;255;1061;-63
2022/01/27 01:45:43;;;;;;;;;;;22.30;26.50;;;;;;467741;255;1221;-63
2022/01/27 01:47:45;;;;;;;;;;;22.30;26.40;;;;;;467805;255;1076;-64
2022/01/27 01:49:46;;;;;;;;;;;22.30;26.40;;;;;;467805;255;1027;-63
2022/01/27 01:51:47;;;;;;;;;;;22.30;26.40;;;;;;467736;255;1224;-63
2022/01/27 01:53:48;;;;;;;;;;;22.30;26.40;;;;;;467788;255;1083;-63
2022/01/27 01:55:50;;;;;;;;;;;22.20;26.50;;;;;;467614;254;2179;-63
2022/01/27 01:57:51;;;;;;;;;;;22.30;26.40;;;;;;467643;255;1199;-63
2022/01/27 01:59:52;;;;;;;;;;;22.30;26.40;;;;;;467854;255;1013;-63
2022/01/27 02:01:54;;;;;;;;;;;22.60;26.00;;;;;;467693;255;1341;-63
2022/01/27 02:03:55;;;;;;;;;;;22.40;26.30;;;;;;467776;255;1258;-63
2022/01/27 02:05:57;;;;;;;;;;;22.40;26.30;;;;;;467701;255;1229;-64
2022/01/27 02:08:10;;;;;;;;;;;22.40;26.20;;;;;;467626;255;1332;-63
2022/01/27 02:10:11;;;;;;;;;;;22.30;26.30;;;;;;466817;255;1361;-63
2022/01/27 02:19:04;;;;;;;;;;;22.30;26.40;;;;;;467769;255;1117;-63
2022/01/27 02:21:06;;;;;;;;;;;22.30;26.40;;;;;;467692;255;1176;-63
2022/01/27 02:23:07;;;;;;;;;;;22.30;26.40;;;;;;467759;255;1123;-63
2022/01/27 02:25:08;;;;;;;;;;;22.40;26.20;;;;;;467793;255;1079;-64
2022/01/27 02:27:10;;;;;;;;;;;22.30;26.20;;;;;;467751;255;1105;-63
2022/01/27 02:29:11;;;;;;;;;;;22.20;26.40;;;;;;467805;255;1056;-63
2022/01/27 02:31:12;;;;;;;;;;;22.50;26.00;;;;;;467770;255;1246;-63
2022/01/27 02:33:14;;;;;;;;;;;22.40;26.10;;;;;;467768;255;1041;-63
2022/01/27 02:35:15;;;;;;;;;;;22.40;26.10;;;;;;467795;255;2133;-63
2022/01/27 02:37:16;;;;;;;;;;;22.40;26.20;;;;;;467735;254;1227;-63
2022/01/27 02:39:18;;;;;;;;;;;22.40;26.20;;;;;;467855;255;975;-63
2022/01/27 02:41:19;;;;;;;;;;;22.40;26.20;;;;;;467642;255;1307;-64
2022/01/27 02:43:20;;;;;;;;;;;22.40;26.20;;;;;;467774;255;1116;-63
2022/01/27 02:45:22;;;;;;;;;;;22.20;26.30;;;;;;467759;255;996;-63
2022/01/27 02:47:23;;;;;;;;;;;22.20;26.30;;;;;;467770;255;1190;-64
2022/01/27 02:49:24;;;;;;;;;;;22.20;26.30;;;;;;467786;255;1052;-63
2022/01/27 02:51:26;;;;;;;;;;;22.30;26.30;;;;;;467951;254;1239;-64
2022/01/27 02:53:27;;;;;;;;;;;22.30;26.30;;;;;;467798;255;1123;-63
2022/01/27 02:55:28;;;;;;;;;;;22.10;26.30;;;;;;467723;255;2200;-63
2022/01/27 02:57:30;;;;;;;;;;;22.20;26.30;;;;;;467806;255;1166;-63
2022/01/27 02:59:31;;;;;;;;;;;22.30;26.30;;;;;;467868;255;1034;-64
2022/01/27 03:01:32;;;;;;;;;;;22.40;26.20;;;;;;467760;251;1083;-63
2022/01/27 03:03:34;;;;;;;;;;;22.30;26.30;;;;;;467808;255;1076;-63
2022/01/27 03:05:35;;;;;;;;;;;22.30;26.20;;;;;;467720;255;1187;-63
2022/01/27 03:07:36;;;;;;;;;;;22.40;26.10;;;;;;467764;255;1216;-63
2022/01/27 03:09:38;;;;;;;;;;;22.40;26.10;;;;;;467851;255;1110;-63
2022/01/27 03:11:39;;;;;;;;;;;22.40;26.10;;;;;;467725;254;1229;-63
2022/01/27 03:13:40;;;;;;;;;;;22.40;26.10;;;;;;467782;255;1243;-63
2022/01/27 03:15:42;;;;;;;;;;;22.30;26.20;;;;;;467784;255;2165;-63
2022/01/27 03:17:43;;;;;;;;;;;22.30;26.20;;;;;;467661;255;1042;-63
2022/01/27 03:19:44;;;;;;;;;;;22.30;26.20;;;;;;467813;255;1193;-63
2022/01/27 03:21:46;;;;;;;;;;;22.20;26.30;;;;;;467874;255;1201;-63
2022/01/27 03:23:47;;;;;;;;;;;22.20;26.30;;;;;;467762;255;1163;-63
2022/01/27 03:25:48;;;;;;;;;;;22.30;26.20;;;;;;467731;255;1242;-63
2022/01/27 03:27:49;;;;;;;;;;;22.20;26.30;;;;;;467746;255;1159;-63
2022/01/27 03:29:51;;;;;;;;;;;22.10;26.30;;;;;;467782;255;986;-63
2022/01/27 03:31:52;;;;;;;;;;;22.60;25.90;;;;;;467781;255;1313;-63
2022/01/27 03:33:53;;;;;;;;;;;22.40;26.10;;;;;;467730;255;1227;-63
2022/01/27 03:35:55;;;;;;;;;;;22.40;26.10;;;;;;467639;255;2199;-64
2022/01/27 03:37:56;;;;;;;;;;;22.30;26.20;;;;;;467701;255;1204;-63
2022/01/27 03:39:57;;;;;;;;;;;22.30;26.20;;;;;;467840;255;1288;-63
2022/01/27 03:42:00;;;;;;;;;;;22.30;26.10;;;;;;467718;255;1292;-63
2022/01/27 03:44:00;;;;;;;;;;;22.40;26.10;;;;;;467819;255;1854;-63
2022/01/27 03:46:01;;;;;;;;;;;22.20;26.20;;;;;;467722;255;1138;-64
2022/01/27 03:48:03;;;;;;;;;;;22.30;26.20;;;;;;467903;255;1127;-63
2022/01/27 03:50:04;;;;;;;;;;;22.20;26.30;;;;;;467795;255;1175;-63
2022/01/27 03:52:05;;;;;;;;;;;22.20;26.30;;;;;;467835;255;1203;-63
2022/01/27 03:54:07;;;;;;;;;;;22.20;26.30;;;;;;467820;255;998;-64
2022/01/27 03:56:08;;;;;;;;;;;22.20;26.30;;;;;;467745;255;2125;-63
2022/01/27 03:58:09;;;;;;;;;;;22.20;26.20;;;;;;467828;255;1206;-63
2022/01/27 04:00:11;;;;;;;;;;;22.20;26.20;;;;;;467891;255;1276;-63
2022/01/27 04:02:12;;;;;;;;;;;22.50;26.00;;;;;;467807;255;1200;-64
2022/01/27 04:04:14;;;;;;;;;;;22.20;26.20;;;;;;467786;255;966;-63
2022/01/27 04:06:20;;;;;;;;;;;22.30;26.20;;;;;;467786;255;1493;-65
2022/01/27 04:08:16;;;;;;;;;;;22.30;26.10;;;;;;467334;255;1453;-63
2022/01/27 04:10:17;;;;;;;;;;;22.40;26.10;;;;;;467819;255;1098;-63
2022/01/27 04:12:19;;;;;;;;;;;22.30;26.20;;;;;;467730;255;1077;-63
2022/01/27 04:14:20;;;;;;;;;;;22.30;26.20;;;;;;467795;255;1203;-63
2022/01/27 04:16:21;;;;;;;;;;;22.20;26.20;;;;;;467743;254;2201;-63
2022/01/27 04:18:22;;;;;;;;;;;22.20;26.20;;;;;;467907;255;1040;-63
2022/01/27 04:20:24;;;;;;;;;;;22.20;26.20;;;;;;467904;255;1062;-63
2022/01/27 04:22:25;;;;;;;;;;;22.20;26.20;;;;;;467739;255;1079;-63
2022/01/27 04:24:26;;;;;;;;;;;22.00;26.30;;;;;;467900;255;1058;-63
2022/01/27 04:26:34;;;;;;;;;;;22.10;26.20;;;;;;467757;255;1151;-63
2022/01/27 04:28:32;;;;;;;;;;;22.20;26.30;;;;;;467345;255;1422;-63
2022/01/27 04:30:30;;;;;;;;;;;22.00;26.30;;;;;;467562;255;1322;-63
2022/01/27 04:32:39;;;;;;;;;;;22.20;26.10;;;;;;467767;255;1126;-63
2022/01/27 04:34:36;;;;;;;;;;;22.10;26.30;;;;;;467171;255;1389;-64
2022/01/27 04:36:35;;;;;;;;;;;22.00;26.30;;;;;;467608;251;2141;-63
2022/01/27 04:38:41;;;;;;;;;;;22.10;26.30;;;;;;467839;255;1011;-64
2022/01/27 04:40:43;;;;;;;;;;;22.00;26.40;;;;;;467302;255;1375;-63
2022/01/27 04:42:49;;;;;;;;;;;22.00;26.40;;;;;;467234;255;1400;-63
2022/01/27 04:44:48;;;;;;;;;;;21.90;26.40;;;;;;467151;255;1435;-63
2022/01/27 04:46:48;;;;;;;;;;;21.80;26.50;;;;;;467264;255;1397;-63
2022/01/27 04:48:48;;;;;;;;;;;21.80;26.50;;;;;;467354;255;1443;-63
2022/01/27 04:50:45;;;;;;;;;;;21.70;26.70;;;;;;467416;255;1344;-63
2022/01/27 04:52:49;;;;;;;;;;;21.70;26.60;;;;;;467719;255;1062;-63
2022/01/27 04:54:56;;;;;;;;;;;21.70;26.50;;;;;;467614;255;1490;-63
2022/01/27 04:56:51;;;;;;;;;;;21.70;26.60;;;;;;467111;255;2136;-63
2022/01/27 04:58:56;;;;;;;;;;;21.70;26.60;;;;;;467713;255;1208;-63
2022/01/27 05:00:56;;;;;;;;;;;21.70;26.50;;;;;;467491;255;1379;-63
2022/01/27 05:02:58;;;;;;;;;;;21.90;26.40;;;;;;467600;255;1364;-63
2022/01/27 05:04:56;;;;;;;;;;;21.80;26.40;;;;;;467556;255;1430;-63
2022/01/27 05:06:58;;;;;;;;;;;21.70;26.50;;;;;;467808;251;1348;-64
2022/01/27 05:08:59;;;;;;;;;;;21.70;26.50;;;;;;467727;255;1182;-63
2022/01/27 05:11:04;;;;;;;;;;;21.70;26.50;;;;;;467698;255;1227;-64
2022/01/27 05:13:08;;;;;;;;;;;21.70;26.40;;;;;;467482;255;2000;-63
2022/01/27 05:15:03;;;;;;;;;;;21.70;26.50;;;;;;467371;255;2378;-63
2022/01/27 05:17:04;;;;;;;;;;;21.60;26.50;;;;;;467652;251;2196;-63
2022/01/27 05:19:06;;;;;;;;;;;21.60;26.50;;;;;;467690;255;1099;-63
2022/01/27 05:21:07;;;;;;;;;;;21.60;26.60;;;;;;467523;255;1237;-63
2022/01/27 05:23:08;;;;;;;;;;;21.60;26.50;;;;;;467574;255;1211;-63
2022/01/27 05:25:10;;;;;;;;;;;21.60;26.60;;;;;;467647;255;1056;-63
2022/01/27 05:27:11;;;;;;;;;;;21.50;26.50;;;;;;467693;255;1241;-63
2022/01/27 05:29:13;;;;;;;;;;;21.50;26.60;;;;;;467707;255;1175;-63
2022/01/27 05:31:14;;;;;;;;;;;21.60;26.50;;;;;;467550;255;1212;-63
2022/01/27 05:33:15;;;;;;;;;;;21.60;26.60;;;;;;467689;255;1079;-63
2022/01/27 05:35:16;;;;;;;;;;;21.60;26.50;;;;;;467551;255;1108;-63
2022/01/27 05:37:18;;;;;;;;;;;21.60;26.50;;;;;;467641;255;2137;-63
2022/01/27 05:39:19;;;;;;;;;;;21.60;26.50;;;;;;467667;255;1054;-63
2022/01/27 05:41:20;;;;;;;;;;;21.60;26.50;;;;;;467504;255;1300;-63
2022/01/27 05:43:22;;;;;;;;;;;21.50;26.50;;;;;;467663;255;1060;-63
2022/01/27 05:45:23;;;;;;;;;;;21.50;26.60;;;;;;467549;255;1218;-63
2022/01/27 05:47:25;;;;;;;;;;;21.40;26.60;;;;;;467576;255;1260;-63
2022/01/27 05:49:26;;;;;;;;;;;21.40;26.60;;;;;;467592;255;1139;-63
2022/01/27 05:51:27;;;;;;;;;;;21.50;26.50;;;;;;467667;255;1411;-63
2022/01/27 05:53:30;;;;;;;;;;;21.40;26.60;;;;;;467650;255;1094;-63
2022/01/27 05:55:30;;;;;;;;;;;21.40;26.50;;;;;;467401;255;1588;-63
2022/01/27 05:57:31;;;;;;;;;;;21.40;26.60;;;;;;467492;255;2173;-63
2022/01/27 05:59:33;;;;;;;;;;;21.30;26.60;;;;;;467570;255;1126;-63
2022/01/27 06:01:34;;;;;;;;;;;21.60;26.30;;;;;;467498;255;1169;-63
2022/01/27 06:03:35;;;;;;;;;;;21.60;26.40;;;;;;467499;255;1062;-63
2022/01/27 06:05:37;;;;;;;;;;;21.50;26.40;;;;;;467561;255;1131;-63
2022/01/27 06:07:38;;;;;;;;;;;21.50;26.40;;;;;;467544;255;1160;-63
2022/01/27 06:09:39;;;;;;;;;;;21.50;26.50;;;;;;467470;255;1085;-63
2022/01/27 06:11:41;;;;;;;;;;;21.40;26.50;;;;;;467309;255;1167;-63
2022/01/27 06:13:43;;;;;;;;;;;21.40;26.40;;;;;;467483;255;992;-63
2022/01/27 06:15:43;;;;;;;;;;;21.30;26.60;;;;;;467536;255;1440;-63
2022/01/27 06:17:44;;;;;;;;;;;21.30;26.50;;;;;;467492;255;2142;-63
2022/01/27 06:19:47;;;;;;;;;;;21.30;26.50;;;;;;467559;255;1124;-63
2022/01/27 06:21:47;;;;;;;;;;;21.40;26.50;;;;;;467290;255;1393;-63
2022/01/27 06:23:49;;;;;;;;;;;21.50;26.40;;;;;;467480;255;1060;-63
2022/01/27 06:25:50;;;;;;;;;;;21.50;26.30;;;;;;467487;255;1341;-63
2022/01/27 06:27:52;;;;;;;;;;;21.60;26.30;;;;;;467471;255;1156;-63
2022/01/27 06:29:53;;;;;;;;;;;21.60;26.20;;;;;;467486;255;1132;-63
2022/01/27 06:31:54;;;;;;;;;;;21.90;25.90;;;;;;467363;255;1202;-63
2022/01/27 06:33:56;;;;;;;;;;;21.90;26.00;;;;;;467518;255;1064;-63
2022/01/27 06:35:57;;;;;;;;;;;21.90;26.00;;;;;;467171;255;1119;-63
2022/01/27 06:37:58;;;;;;;;;;;21.90;26.00;;;;;;467497;255;2196;-63
2022/01/27 06:40:00;;;;;;;;;;;21.90;26.00;;;;;;467434;255;1170;-63
2022/01/27 06:42:02;;;;;;;;;;;22.00;26.00;;;;;;467403;251;1156;-63
2022/01/27 06:44:03;;;;;;;;;;;22.00;25.90;;;;;;467410;255;1572;-63
2022/01/27 06:46:04;;;;;;;;;;;21.90;26.00;;;;;;467451;255;1195;-63
2022/01/27 06:48:05;;;;;;;;;;;21.80;26.10;;;;;;467523;255;1041;-63
2022/01/27 06:50:07;;;;;;;;;;;21.90;26.00;;;;;;467404;255;1026;-63
2022/01/27 06:52:08;;;;;;;;;;;21.90;26.00;;;;;;467299;254;1369;-63
2022/01/27 06:54:09;;;;;;;;;;;21.90;26.00;;;;;;467413;255;1076;-63
2022/01/27 06:56:11;;;;;;;;;;;21.90;26.00;;;;;;467406;255;1291;-63
2022/01/27 06:58:12;;;;;;;;;;;22.00;25.90;;;;;;467520;255;2212;-63
2022/01/27 07:00:13;;;;;;;;;;;22.00;25.90;;;;;;467452;255;1217;-64
2022/01/27 07:02:15;;;;;;;;;;;22.10;25.80;;;;;;467339;255;1214;-63
2022/01/27 07:04:16;;;;;;;;;;;22.00;25.90;;;;;;467429;255;1073;-63
2022/01/27 07:06:18;;;;;;;;;;;22.10;25.80;;;;;;467262;255;1346;-64
2022/01/27 07:08:19;;;;;;;;;;;22.10;25.70;;;;;;467383;255;1092;-63
2022/01/27 07:10:20;;;;;;;;;;;22.10;25.80;;;;;;467294;255;1024;-63
2022/01/27 07:12:22;;;;;;;;;;;22.10;25.80;;;;;;467134;255;1195;-63
2022/01/27 07:14:23;;;;;;;;;;;22.20;25.70;;;;;;467184;255;1112;-63
2022/01/27 07:16:24;;;;;;;;;;;22.10;25.70;;;;;;467220;255;1215;-63
2022/01/27 07:18:26;;;;;;;;;;;22.00;25.80;;;;;;467309;255;2129;-64
2022/01/27 07:20:27;;;;;;;;;;;22.00;25.80;;;;;;467260;255;1049;-63
2022/01/27 07:22:28;;;;;;;;;;;22.10;25.80;;;;;;467319;255;1116;-64
2022/01/27 07:24:30;;;;;;;;;;;22.10;25.70;;;;;;467262;255;1053;-63
2022/01/27 07:26:31;;;;;;;;;;;22.20;25.70;;;;;;467095;255;1406;-63
2022/01/27 07:28:32;;;;;;;;;;;22.10;25.60;;;;;;467078;255;1179;-63
2022/01/27 07:30:34;;;;;;;;;;;22.10;25.70;;;;;;467134;255;1173;-63
2022/01/27 07:32:35;;;;;;;;;;;22.30;25.50;;;;;;467228;255;1372;-63
2022/01/27 07:34:36;;;;;;;;;;;22.30;25.60;;;;;;467186;255;1056;-63
2022/01/27 07:36:40;;;;;;;;;;;22.20;25.60;;;;;;467105;255;1236;-63
2022/01/27 07:38:39;;;;;;;;;;;22.10;25.70;;;;;;467043;255;2132;-63
2022/01/27 07:40:40;;;;;;;;;;;22.20;25.60;;;;;;467102;255;1478;-63
2022/01/27 07:42:42;;;;;;;;;;;22.20;25.60;;;;;;467032;255;1173;-63
2022/01/27 07:44:43;;;;;;;;;;;22.10;25.60;;;;;;467069;255;1081;-63
2022/01/27 07:46:44;;;;;;;;;;;22.10;25.70;;;;;;467208;255;1289;-63
2022/01/27 07:48:45;;;;;;;;;;;22.10;25.60;;;;;;467120;255;1067;-63
2022/01/27 07:50:47;;;;;;;;;;;22.10;25.70;;;;;;467085;255;1172;-64
2022/01/27 07:52:48;;;;;;;;;;;22.00;25.80;;;;;;467197;255;1175;-63
2022/01/27 07:54:49;;;;;;;;;;;22.00;25.80;;;;;;467100;255;1263;-63
2022/01/27 07:56:51;;;;;;;;;;;22.00;25.70;;;;;;467065;255;1220;-64
2022/01/27 07:58:52;;;;;;;;;;;22.10;25.70;;;;;;466996;255;2196;-63
2022/01/27 08:00:53;;;;;;;;;;;22.00;25.80;;;;;;466936;255;1277;-63
2022/01/27 08:02:55;;;;;;;;;;;22.20;25.60;;;;;;467707;255;1066;-63
2022/01/27 08:04:56;;;;;;;;;;;22.20;25.60;;;;;;467296;255;910;-63
2022/01/27 08:06:57;;;;;;;;;;;22.30;25.60;;;;;;467153;255;1193;-63
2022/01/27 08:08:59;;;;;;;;;;;22.20;25.60;;;;;;466859;254;1067;-63
2022/01/27 08:11:00;;;;;;;;;;;22.20;25.60;;;;;;466881;255;1223;-63
2022/01/27 08:13:01;;;;;;;;;;;22.20;25.70;;;;;;467049;255;1262;-64
2022/01/27 08:15:03;;;;;;;;;;;22.20;25.70;;;;;;466864;255;1085;-63
2022/01/27 08:17:04;;;;;;;;;;;22.10;25.80;;;;;;466926;255;1375;-64
2022/01/27 08:19:05;;;;;;;;;;;22.10;25.70;;;;;;467517;255;2196;-63
2022/01/27 08:21:07;;;;;;;;;;;22.20;25.70;;;;;;466651;255;1308;-63
2022/01/27 08:23:08;;;;;;;;;;;22.20;25.70;;;;;;467068;255;1164;-64
2022/01/27 08:25:09;;;;;;;;;;;22.20;25.70;;;;;;466818;255;1061;-63
2022/01/27 08:27:15;;;;;;;;;;;22.10;25.70;;;;;;466987;255;1374;-63
2022/01/27 08:29:16;;;;;;;;;;;22.20;25.70;;;;;;466551;255;1349;-63
2022/01/27 08:31:14;;;;;;;;;;;22.20;25.60;;;;;;466649;255;1339;-63
2022/01/27 08:33:17;;;;;;;;;;;22.00;25.80;;;;;;467383;255;1336;-63
2022/01/27 08:35:16;;;;;;;;;;;21.90;25.90;;;;;;466725;255;1308;-63
2022/01/27 08:37:18;;;;;;;;;;;21.90;26.00;;;;;;467109;255;2192;-63
2022/01/27 08:39:19;;;;;;;;;;;22.00;26.00;;;;;;467052;255;1159;-63
2022/01/27 08:41:20;;;;;;;;;;;22.00;25.80;;;;;;466781;254;1189;-63
2022/01/27 08:43:22;;;;;;;;;;;22.00;25.90;;;;;;466845;255;1208;-63
2022/01/27 08:45:24;;;;;;;;;;;22.00;25.90;;;;;;466892;255;1188;-63
2022/01/27 08:47:25;;;;;;;;;;;22.00;25.90;;;;;;466813;255;1408;-64
2022/01/27 08:49:27;;;;;;;;;;;22.10;25.80;;;;;;466701;255;1294;-63
2022/01/27 08:51:29;;;;;;;;;;;22.00;25.80;;;;;;466425;255;1234;-64
2022/01/27 08:53:29;;;;;;;;;;;22.00;25.90;;;;;;466546;255;1340;-63
2022/01/27 08:55:30;;;;;;;;;;;22.10;25.80;;;;;;466781;255;1252;-64
2022/01/27 08:57:31;;;;;;;;;;;22.10;25.70;;;;;;466923;255;2211;-64
2022/01/27 08:59:33;;;;;;;;;;;22.10;25.80;;;;;;466828;255;1074;-63
2022/01/27 09:01:34;;;;;;;;;;;22.10;25.80;;;;;;467274;255;2234;-63
2022/01/27 09:03:35;;;;;;;;;;;22.10;25.80;;;;;;467503;255;1103;-63
2022/01/27 09:05:36;;;;;;;;;;;22.20;25.70;;;;;;466931;255;1361;-63
2022/01/27 09:07:38;;;;;;;;;;;22.10;25.70;;;;;;466944;255;1221;-63
2022/01/27 09:09:39;;;;;;;;;;;22.10;25.80;;;;;;466929;255;1215;-63
2022/01/27 09:11:43;;;;;;;;;;;22.00;25.80;;;;;;466902;255;1179;-64
2022/01/27 09:13:42;;;;;;;;;;;22.00;25.80;;;;;;466595;255;2150;-63
2022/01/27 09:15:43;;;;;;;;;;;22.00;25.80;;;;;;466611;255;1433;-63
2022/01/27 09:17:45;;;;;;;;;;;21.90;25.80;;;;;;466894;255;2196;-63
2022/01/27 09:19:46;;;;;;;;;;;21.90;25.90;;;;;;466783;255;1067;-63
2022/01/27 09:21:47;;;;;;;;;;;21.90;25.80;;;;;;466835;255;1317;-63
2022/01/27 09:23:49;;;;;;;;;;;21.90;25.80;;;;;;466815;255;1119;-63
2022/01/27 09:25:54;;;;;;;;;;;21.90;25.80;;;;;;466625;255;1269;-63
2022/01/27 09:27:52;;;;;;;;;;;21.90;25.80;;;;;;466449;255;1284;-63
2022/01/27 09:29:52;;;;;;;;;;;21.90;25.80;;;;;;466508;255;1399;-63
2022/01/27 09:31:54;;;;;;;;;;;21.90;25.80;;;;;;466588;255;1246;-63
2022/01/27 09:33:55;;;;;;;;;;;21.80;25.90;;;;;;466729;255;1130;-63
2022/01/27 09:35:58;;;;;;;;;;;21.80;25.90;;;;;;466803;255;1200;-63
2022/01/27 09:37:59;;;;;;;;;;;21.90;25.80;;;;;;466802;255;2204;-63
2022/01/27 09:40:01;;;;;;;;;;;21.90;25.90;;;;;;466888;255;1130;-63
2022/01/27 09:42:02;;;;;;;;;;;21.90;25.80;;;;;;466957;255;1260;-63
2022/01/27 09:44:04;;;;;;;;;;;21.90;25.80;;;;;;466844;255;1093;-63
2022/01/27 09:46:07;;;;;;;;;;;21.90;25.80;;;;;;466906;255;2397;-63
2022/01/27 09:48:13;;;;;;;;;;;22.00;25.70;;;;;;466826;255;1319;-64
2022/01/27 09:50:25;;;;;;;;;;;22.00;25.70;;;;;;466725;255;2005;-63
2022/01/27 09:52:21;;;;;;;;;;;22.00;25.70;;;;;;466339;255;1980;-64
2022/01/27 09:54:23;;;;;;;;;;;22.00;25.70;;;;;;466753;255;1067;-63
2022/01/27 09:56:24;;;;;;;;;;;21.90;25.70;;;;;;466914;255;1321;-63
2022/01/27 09:58:27;;;;;;;;;;;21.90;25.70;;;;;;466763;255;2185;-63
2022/01/27 10:00:27;;;;;;;;;;;22.00;25.70;;;;;;466206;255;1389;-63
2022/01/27 10:02:29;;;;;;;;;;;21.90;25.70;;;;;;466351;255;1152;-63
2022/01/27 10:04:30;;;;;;;;;;;22.10;25.70;;;;;;466499;255;1361;-63
2022/01/27 10:06:32;;;;;;;;;;;22.10;25.60;;;;;;466585;250;1553;-63
2022/01/27 10:08:33;;;;;;;;;;;22.10;25.60;;;;;;466619;255;1931;-63
2022/01/27 10:10:33;;;;;;;;;;;22.00;25.70;;;;;;466803;255;1263;-63
2022/01/27 10:12:37;;;;;;;;;;;22.00;25.60;;;;;;466837;255;1272;-63
2022/01/27 10:14:38;;;;;;;;;;;22.00;25.60;;;;;;466357;255;1375;-63
2022/01/27 10:16:41;;;;;;;;;;;22.10;25.60;;;;;;466516;255;1429;-63
2022/01/27 10:18:39;;;;;;;;;;;22.10;25.70;;;;;;466646;255;2204;-63
2022/01/27 10:20:40;;;;;;;;;;;22.00;25.80;;;;;;466709;255;1071;-63
2022/01/27 10:22:42;;;;;;;;;;;22.00;25.70;;;;;;466884;255;1184;-63
2022/01/27 10:24:44;;;;;;;;;;;21.90;25.80;;;;;;466678;255;1299;-63
2022/01/27 10:26:51;;;;;;;;;;;21.90;25.90;;;;;;466797;255;2291;-63
2022/01/27 10:28:49;;;;;;;;;;;21.90;25.90;;;;;;466314;255;1316;-63
2022/01/27 10:30:48;;;;;;;;;;;21.80;25.90;;;;;;466518;255;2228;-63
2022/01/27 10:32:48;;;;;;;;;;;21.80;25.90;;;;;;466752;255;2129;-63
2022/01/27 10:34:50;;;;;;;;;;;21.90;25.90;;;;;;466800;255;1082;-76
2022/01/27 10:36:51;;;;;;;;;;;21.10;26.20;;;;;;466846;255;1204;-76
2022/01/27 10:38:53;;;;;;;;;;;20.70;26.70;;;;;;466781;255;2199;-76
2022/01/27 10:40:55;;;;;;;;;;;20.40;26.90;;;;;;466646;255;1142;-76
2022/01/27 10:42:56;;;;;;;;;;;20.40;27.10;;;;;;467073;255;1205;-76
2022/01/27 10:44:57;;;;;;;;;;;20.10;27.20;;;;;;466626;255;1277;-76
2022/01/27 10:47:00;;;;;;;;;;;20.20;27.30;;;;;;466517;255;1229;-77
2022/01/27 10:49:05;;;;;;;;;;;20.10;27.30;;;;;;466710;255;1395;-77
2022/01/27 10:51:06;;;;;;;;;;;20.10;27.50;;;;;;466378;255;1385;-77
2022/01/27 10:53:05;;;;;;;;;;;20.00;27.40;;;;;;466559;255;1375;-77
2022/01/27 10:55:05;;;;;;;;;;;20.10;27.50;;;;;;466779;255;1436;-77
2022/01/27 10:57:07;;;;;;;;;;;20.00;27.50;;;;;;466744;255;1161;-77
2022/01/27 10:59:08;;;;;;;;;;;19.80;27.70;;;;;;466742;255;2188;-77
2022/01/27 11:01:09;;;;;;;;;;;20.20;27.40;;;;;;466908;251;1352;-77
2022/01/27 11:03:12;;;;;;;;;;;20.20;27.40;;;;;;466832;255;1152;-77
2022/01/27 11:05:12;;;;;;;;;;;20.20;27.50;;;;;;466704;255;1291;-76
2022/01/27 11:07:13;;;;;;;;;;;20.20;27.40;;;;;;466876;255;1154;-77
2022/01/27 11:09:15;;;;;;;;;;;20.00;27.50;;;;;;466858;255;1060;-77
2022/01/27 11:11:16;;;;;;;;;;;20.00;27.40;;;;;;466816;255;1111;-77
2022/01/27 11:13:17;;;;;;;;;;;20.20;27.50;;;;;;466892;255;1067;-77
2022/01/27 11:15:19;;;;;;;;;;;20.10;27.50;;;;;;466886;255;1418;-77
2022/01/27 11:17:21;;;;;;;;;;;20.20;27.30;;;;;;466788;251;1293;-77
2022/01/27 11:19:36;;;;;;;;;;;20.00;27.40;;;;;;466756;255;2192;-77
2022/01/27 11:21:30;;;;;;;;;;;20.00;27.50;;;;;;465890;255;1439;-77
2022/01/27 11:23:59;;;;;;;;;;;20.50;27.30;;;;;;466655;255;1458;-77
2022/01/27 11:25:52;;;;;;;;;;;20.30;27.30;;;;;;465728;255;1377;-77
2022/01/27 11:27:52;;;;;;;;;;;20.50;27.10;;;;;;466750;255;1369;-77
2022/01/27 11:29:54;;;;;;;;;;;20.80;26.80;;;;;;466669;255;1103;-77
2022/01/27 11:31:55;;;;;;;;;;;20.50;27.10;;;;;;466717;255;1105;-77
2022/01/27 11:33:56;;;;;;;;;;;20.60;27.00;;;;;;466685;255;1444;-77
2022/01/27 11:35:58;;;;;;;;;;;20.50;27.00;;;;;;466675;255;1158;-77
2022/01/27 11:38:00;;;;;;;;;;;20.50;27.10;;;;;;466783;255;1276;-77
2022/01/27 11:40:00;;;;;;;;;;;20.60;27.00;;;;;;466486;255;2141;-77
2022/01/27 11:42:02;;;;;;;;;;;20.40;27.20;;;;;;466618;255;1183;-77
2022/01/27 11:44:03;;;;;;;;;;;20.40;27.20;;;;;;466623;255;1264;-77
2022/01/27 11:46:04;;;;;;;;;;;20.30;27.20;;;;;;466689;255;1318;-77
2022/01/27 11:48:10;;;;;;;;;;;20.50;27.20;;;;;;466771;255;1075;-77
2022/01/27 11:50:22;;;;;;;;;;;20.40;27.20;;;;;;466563;255;1490;-76
2022/01/27 11:52:11;;;;;;;;;;;20.30;27.20;;;;;;466235;255;1550;-77
2022/01/27 11:54:13;;;;;;;;;;;20.70;27.20;;;;;;466607;255;1065;-76
2022/01/27 11:56:16;;;;;;;;;;;20.30;27.20;;;;;;466711;255;1412;-76
2022/01/27 11:58:15;;;;;;;;;;;20.50;27.10;;;;;;466587;255;1804;-77
2022/01/27 12:00:17;;;;;;;;;;;20.50;27.00;;;;;;466725;255;2294;-77
2022/01/27 12:02:21;;;;;;;;;;;20.50;27.10;;;;;;466930;255;1218;-77
2022/01/27 12:04:19;;;;;;;;;;;20.90;26.90;;;;;;466659;255;1988;-77
2022/01/27 12:06:21;;;;;;;;;;;20.70;26.90;;;;;;467038;255;1218;-77
2022/01/27 12:08:23;;;;;;;;;;;21.00;26.60;;;;;;467077;255;1045;-77
2022/01/27 12:10:23;;;;;;;;;;;21.10;26.70;;;;;;466976;255;1294;-77
2022/01/27 12:12:27;;;;;;;;;;;20.90;26.80;;;;;;466895;255;1186;-77
2022/01/27 12:14:29;;;;;;;;;;;20.90;26.80;;;;;;466663;255;1423;-77
2022/01/27 12:18:47;;;;;;;;;;;21.10;26.60;;;;;;466869;255;2145;-77
2022/01/27 12:20:48;;;;;;;;;;;21.00;26.70;;;;;;466844;255;1103;-77
2022/01/27 12:22:51;;;;;;;;;;;21.20;26.70;;;;;;466915;251;1210;-77